createdAt,value
2022-07-29T20:11:08.733Z,2.65
2022-07-29T20:13:11.060Z,2.58
2022-07-29T20:15:16.455Z,2.88
2022-07-29T20:17:19.562Z,3.17
2022-07-29T20:19:21.585Z,3.10
2022-07-29T20:21:23.420Z,3.33
2022-07-29T20:23:25.334Z,3.65
2022-07-29T20:25:27.307Z,3.58
2022-07-29T20:27:29.454Z,2.55
2022-07-29T20:29:31.332Z,3.50
2022-07-29T20:31:33.383Z,5.18
2022-07-29T20:33:35.342Z,4.65
2022-07-29T20:35:37.217Z,2.85
2022-07-29T20:37:52.564Z,3.08
2022-07-29T20:39:58.248Z,2.80
2022-07-29T20:42:00.229Z,3.17
2022-07-29T20:44:03.509Z,2.53
2022-07-29T20:46:05.356Z,2.45
2022-07-29T20:48:08.297Z,2.42
2022-07-29T20:50:10.646Z,2.20
2022-07-29T20:52:12.766Z,2.05
2022-07-29T20:54:14.691Z,2.55
2022-07-29T20:56:16.528Z,1.90
2022-07-29T20:58:19.731Z,2.17
2022-07-29T21:00:21.686Z,2.78
2022-07-29T21:02:23.687Z,1.95
2022-07-29T21:04:30.608Z,2.55
2022-07-29T21:06:35.032Z,1.45
2022-07-29T21:08:37.146Z,1.65
2022-07-29T21:10:39.257Z,2.47
2022-07-29T21:12:41.967Z,1.48
2022-07-29T21:14:43.865Z,1.58
2022-07-29T21:16:45.786Z,1.50
2022-07-29T21:18:47.926Z,2.08
2022-07-29T21:20:49.762Z,1.85
2022-07-29T21:22:51.589Z,1.42
2022-07-29T21:24:53.501Z,1.20
2022-07-29T21:27:20.828Z,1.70
2022-07-29T21:29:23.495Z,1.60
2022-07-29T21:31:27.019Z,1.65
2022-07-29T21:33:30.987Z,2.03
2022-07-29T21:36:07.344Z,1.85
2022-07-29T21:37:54.761Z,2.20
2022-07-29T21:39:57.065Z,1.50
2022-07-29T21:41:58.929Z,1.27
2022-07-29T21:44:01.374Z,2.30
